Time,TemperatureF,DewpointF,PressureIn,WindDirection,WindDirectionDegrees,WindSpeedMPH,WindSpeedGustMPH,Humidity,HourlyPrecipIn,Conditions,Clouds,dailyrainin,SoftwareType,DateUTC
2013-02-03 00:03:00,27.0,24.7,30.33,SSW,197,0.0,0.0,91,0.00,,,0.00,Wunderground v.1.15,2013-02-03 07:03:00,
2013-02-03 00:09:00,26.3,23.8,30.33,SSW,197,0.0,0.0,90,0.00,,,0.00,Wunderground v.1.15,2013-02-03 07:09:00,
2013-02-03 00:15:00,25.9,23.6,30.33,SSW,197,0.0,0.0,91,0.00,,,0.00,Wunderground v.1.15,2013-02-03 07:15:00,
2013-02-03 00:20:00,26.3,24.3,30.33,SSW,197,0.0,0.0,92,0.00,,,0.00,Wunderground v.1.15,2013-02-03 07:20:00,
2013-02-03 00:26:00,26.0,23.7,30.33,SSW,197,0.0,0.0,91,0.00,,,0.00,Wunderground v.1.15,2013-02-03 07:26:00,
2013-02-03 00:32:00,25.8,23.8,30.32,SSW,197,0.0,0.0,92,0.00,,,0.00,Wunderground v.1.15,2013-02-03 07:32:00,
2013-02-03 00:38:00,26.0,24.0,30.32,SSW,197,0.0,0.0,92,0.00,,,0.00,Wunderground v.1.15,2013-02-03 07:38:00,
2013-02-03 00:43:00,25.9,23.9,30.32,SSW,197,0.0,0.0,92,0.00,,,0.00,Wunderground v.1.15,2013-02-03 07:43:00,
2013-02-03 00:49:00,25.7,23.7,30.31,SSW,197,0.0,0.0,92,0.00,,,0.00,Wunderground v.1.15,2013-02-03 07:49:00,
2013-02-03 00:55:00,25.2,23.2,30.31,SSW,197,0.0,0.0,92,0.00,,,0.00,Wunderground v.1.15,2013-02-03 07:55:00,
2013-02-03 01:01:00,25.4,23.4,30.31,SSW,197,0.0,0.0,92,0.00,,,0.00,Wunderground v.1.15,2013-02-03 08:01:00,
2013-02-03 01:06:00,26.1,24.4,30.31,SSW,197,0.0,0.0,93,0.00,,,0.00,Wunderground v.1.15,2013-02-03 08:06:00,
2013-02-03 01:12:00,25.9,23.9,30.31,SSW,197,0.0,0.0,92,0.00,,,0.00,Wunderground v.1.15,2013-02-03 08:12:00,
2013-02-03 01:18:00,25.9,23.9,30.30,SSW,197,0.0,0.0,92,0.00,,,0.00,Wunderground v.1.15,2013-02-03 08:18:00,
2013-02-03 01:24:00,26.6,24.8,30.30,SSW,197,0.0,0.0,93,0.00,,,0.00,Wunderground v.1.15,2013-02-03 08:24:00,
2013-02-03 01:30:00,26.7,24.7,30.30,SSW,197,0.0,0.0,92,0.00,,,0.00,Wunderground v.1.15,2013-02-03 08:30:00,
2013-02-03 01:35:00,26.3,24.0,30.30,SSW,197,0.0,0.0,91,0.00,,,0.00,Wunderground v.1.15,2013-02-03 08:35:00,
2013-02-03 01:41:00,25.6,23.3,30.30,SSW,197,0.0,0.0,91,0.00,,,0.00,Wunderground v.1.15,2013-02-03 08:41:00,
2013-02-03 01:47:00,25.5,23.5,30.30,SSW,197,0.0,0.0,92,0.00,,,0.00,Wunderground v.1.15,2013-02-03 08:47:00,
2013-02-03 01:53:00,24.6,22.3,30.30,SW,215,0.0,1.0,91,0.00,,,0.00,Wunderground v.1.15,2013-02-03 08:53:00,
2013-02-03 01:59:00,23.5,21.3,30.30,SW,215,0.0,1.0,91,0.00,,,0.00,Wunderground v.1.15,2013-02-03 08:59:00,
2013-02-03 02:04:00,23.9,22.2,30.30,SW,215,0.0,0.0,93,0.00,,,0.00,Wunderground v.1.15,2013-02-03 09:04:00,
2013-02-03 02:10:00,25.1,23.6,30.30,SW,215,0.0,0.0,94,0.00,,,0.00,Wunderground v.1.15,2013-02-03 09:10:00,
2013-02-03 02:15:00,24.9,23.2,30.29,SW,215,0.0,0.0,93,0.00,,,0.00,Wunderground v.1.15,2013-02-03 09:15:00,
2013-02-03 02:21:00,25.0,23.3,30.29,SW,215,0.0,1.0,93,0.00,,,0.00,Wunderground v.1.15,2013-02-03 09:21:00,
2013-02-03 02:27:00,25.3,23.6,30.29,SW,215,0.0,1.0,93,0.00,,,0.00,Wunderground v.1.15,2013-02-03 09:27:00,
2013-02-03 02:32:00,26.0,24.3,30.29,SW,215,0.0,0.0,93,0.00,,,0.00,Wunderground v.1.15,2013-02-03 09:32:00,
2013-02-03 02:38:00,26.3,24.6,30.28,SW,215,0.0,1.0,93,0.00,,,0.00,Wunderground v.1.15,2013-02-03 09:38:00,
2013-02-03 02:44:00,26.4,24.7,30.28,SW,215,0.0,1.0,93,0.00,,,0.00,Wunderground v.1.15,2013-02-03 09:44:00,
2013-02-03 02:49:00,26.2,24.2,30.28,SW,215,0.0,1.0,92,0.00,,,0.00,Wunderground v.1.15,2013-02-03 09:49:00,
2013-02-03 02:55:00,25.9,23.9,30.27,SW,215,1.0,1.0,92,0.00,,,0.00,Wunderground v.1.15,2013-02-03 09:55:00,
2013-02-03 03:01:00,25.5,23.5,30.27,SW,215,0.0,0.0,92,0.00,,,0.00,Wunderground v.1.15,2013-02-03 10:01:00,
2013-02-03 03:07:00,24.8,22.5,30.27,SW,215,0.0,1.0,91,0.00,,,0.00,Wunderground v.1.15,2013-02-03 10:07:00,
2013-02-03 03:12:00,23.6,21.6,30.27,SW,215,0.0,0.0,92,0.00,,,0.00,Wunderground v.1.15,2013-02-03 10:12:00,
2013-02-03 03:18:00,23.4,21.4,30.27,SW,215,0.0,0.0,92,0.00,,,0.00,Wunderground v.1.15,2013-02-03 10:18:00,
2013-02-03 03:24:00,23.5,21.8,30.27,SW,215,0.0,0.0,93,0.00,,,0.00,Wunderground v.1.15,2013-02-03 10:24:00,
2013-02-03 03:29:00,23.7,22.0,30.26,SW,215,0.0,0.0,93,0.00,,,0.00,Wunderground v.1.15,2013-02-03 10:29:00,
2013-02-03 03:35:00,24.2,22.7,30.26,SW,215,0.0,0.0,94,0.00,,,0.00,Wunderground v.1.15,2013-02-03 10:35:00,
2013-02-03 03:41:00,24.2,22.5,30.26,SW,215,0.0,0.0,93,0.00,,,0.00,Wunderground v.1.15,2013-02-03 10:41:00,
2013-02-03 03:46:00,24.6,23.1,30.26,SW,215,0.0,2.0,94,0.00,,,0.00,Wunderground v.1.15,2013-02-03 10:46:00,
2013-02-03 03:52:00,24.2,22.5,30.26,SW,215,0.0,1.0,93,0.00,,,0.00,Wunderground v.1.15,2013-02-03 10:52:00,
2013-02-03 03:58:00,24.5,22.8,30.26,SW,215,0.0,1.0,93,0.00,,,0.00,Wunderground v.1.15,2013-02-03 10:58:00,
2013-02-03 04:04:00,25.0,23.3,30.26,SW,215,0.0,0.0,93,0.00,,,0.00,Wunderground v.1.15,2013-02-03 11:04:00,
2013-02-03 04:10:00,24.3,22.3,30.26,SW,215,0.0,0.0,92,0.00,,,0.00,Wunderground v.1.15,2013-02-03 11:10:00,
2013-02-03 04:15:00,23.6,21.6,30.25,SW,215,0.0,2.0,92,0.00,,,0.00,Wunderground v.1.15,2013-02-03 11:15:00,
2013-02-03 04:21:00,23.6,21.9,30.25,SW,215,1.0,1.0,93,0.00,,,0.00,Wunderground v.1.15,2013-02-03 11:21:00,
2013-02-03 04:26:00,23.7,22.0,30.25,SW,215,0.0,1.0,93,0.00,,,0.00,Wunderground v.1.15,2013-02-03 11:26:00,
2013-02-03 04:32:00,23.4,21.7,30.25,WSW,240,0.0,2.0,93,0.00,,,0.00,Wunderground v.1.15,2013-02-03 11:32:00,
2013-02-03 04:38:00,22.6,20.6,30.26,WSW,250,1.0,3.0,92,0.00,,,0.00,Wunderground v.1.15,2013-02-03 11:38:00,
2013-02-03 04:44:00,23.6,22.1,30.25,WSW,250,1.0,1.0,94,0.00,,,0.00,Wunderground v.1.15,2013-02-03 11:44:00,
2013-02-03 04:49:00,24.3,22.8,30.25,WSW,250,0.0,1.0,94,0.00,,,0.00,Wunderground v.1.15,2013-02-03 11:49:00,
2013-02-03 04:55:00,23.9,22.4,30.25,WSW,250,0.0,0.0,94,0.00,,,0.00,Wunderground v.1.15,2013-02-03 11:55:00,
2013-02-03 05:01:00,23.7,22.2,30.25,WSW,250,0.0,1.0,94,0.00,,,0.00,Wunderground v.1.15,2013-02-03 12:01:00,
2013-02-03 05:06:00,23.2,21.5,30.25,WSW,250,0.0,1.0,93,0.00,,,0.00,Wunderground v.1.15,2013-02-03 12:06:00,
2013-02-03 05:12:00,22.9,21.2,30.25,WSW,250,0.0,1.0,93,0.00,,,0.00,Wunderground v.1.15,2013-02-03 12:12:00,
2013-02-03 05:18:00,22.6,20.9,30.24,WSW,250,0.0,1.0,93,0.00,,,0.00,Wunderground v.1.15,2013-02-03 12:18:00,
2013-02-03 05:23:00,22.6,20.9,30.24,WSW,250,0.0,0.0,93,0.00,,,0.00,Wunderground v.1.15,2013-02-03 12:23:00,
2013-02-03 05:29:00,22.2,20.5,30.24,WSW,250,0.0,0.0,93,0.00,,,0.00,Wunderground v.1.15,2013-02-03 12:29:00,
2013-02-03 05:35:00,22.1,20.6,30.24,WSW,250,0.0,1.0,94,0.00,,,0.00,Wunderground v.1.15,2013-02-03 12:35:00,
2013-02-03 05:41:00,21.9,20.4,30.24,WSW,250,0.0,0.0,94,0.00,,,0.00,Wunderground v.1.15,2013-02-03 12:41:00,
2013-02-03 05:47:00,21.9,20.4,30.24,WSW,250,0.0,0.0,94,0.00,,,0.00,Wunderground v.1.15,2013-02-03 12:47:00,
2013-02-03 05:52:00,22.0,20.5,30.23,WSW,250,0.0,0.0,94,0.00,,,0.00,Wunderground v.1.15,2013-02-03 12:52:00,
2013-02-03 05:58:00,22.4,20.9,30.23,WSW,250,0.0,0.0,94,0.00,,,0.00,Wunderground v.1.15,2013-02-03 12:58:00,
2013-02-03 06:04:00,22.1,20.6,30.23,WSW,250,0.0,0.0,94,0.00,,,0.00,Wunderground v.1.15,2013-02-03 13:04:00,
2013-02-03 06:09:00,22.3,20.8,30.23,WSW,250,0.0,2.0,94,0.00,,,0.00,Wunderground v.1.15,2013-02-03 13:09:00,
2013-02-03 06:15:00,22.7,21.5,30.23,WSW,250,1.0,2.0,95,0.00,,,0.00,Wunderground v.1.15,2013-02-03 13:15:00,
2013-02-03 06:21:00,23.1,21.9,30.23,WSW,250,0.0,0.0,95,0.00,,,0.00,Wunderground v.1.15,2013-02-03 13:21:00,
2013-02-03 06:26:00,23.4,22.2,30.23,WSW,250,0.0,0.0,95,0.00,,,0.00,Wunderground v.1.15,2013-02-03 13:26:00,
2013-02-03 06:32:00,23.0,21.5,30.25,WNW,286,1.0,2.0,94,0.00,,,0.00,Wunderground v.1.15,2013-02-03 13:32:00,
2013-02-03 06:38:00,23.0,21.5,30.25,WNW,286,1.0,2.0,94,0.00,,,0.00,Wunderground v.1.15,2013-02-03 13:38:00,
2013-02-03 06:44:00,22.8,21.3,30.24,WNW,286,0.0,1.0,94,0.00,,,0.00,Wunderground v.1.15,2013-02-03 13:44:00,
2013-02-03 06:49:00,23.6,22.4,30.24,WNW,286,0.0,1.0,95,0.00,,,0.00,Wunderground v.1.15,2013-02-03 13:49:00,
2013-02-03 06:55:00,24.1,22.9,30.24,WNW,286,0.0,0.0,95,0.00,,,0.00,Wunderground v.1.15,2013-02-03 13:55:00,
2013-02-03 07:01:00,24.2,22.7,30.23,WNW,286,0.0,0.0,94,0.00,,,0.00,Wunderground v.1.15,2013-02-03 14:01:00,
2013-02-03 07:06:00,23.2,21.5,30.23,WNW,286,0.0,0.0,93,0.00,,,0.00,Wunderground v.1.15,2013-02-03 14:06:00,
2013-02-03 07:12:00,22.3,20.6,30.23,WNW,286,0.0,0.0,93,0.00,,,0.00,Wunderground v.1.15,2013-02-03 14:12:00,
2013-02-03 07:18:00,22.5,21.0,30.23,WNW,286,0.0,2.0,94,0.00,,,0.00,Wunderground v.1.15,2013-02-03 14:18:00,
2013-02-03 07:24:00,23.4,22.2,30.23,WNW,286,0.0,1.0,95,0.00,,,0.00,Wunderground v.1.15,2013-02-03 14:24:00,
2013-02-03 07:29:00,23.1,21.6,30.23,WNW,286,0.0,1.0,94,0.00,,,0.00,Wunderground v.1.15,2013-02-03 14:29:00,
2013-02-03 07:35:00,23.2,21.7,30.24,WNW,286,0.0,0.0,94,0.00,,,0.00,Wunderground v.1.15,2013-02-03 14:35:00,
2013-02-03 07:41:00,23.6,22.4,30.24,WNW,286,0.0,0.0,95,0.00,,,0.00,Wunderground v.1.15,2013-02-03 14:41:00,
2013-02-03 07:47:00,24.4,23.2,30.24,WNW,286,0.0,0.0,95,0.00,,,0.00,Wunderground v.1.15,2013-02-03 14:47:00,
2013-02-03 07:52:00,24.2,22.7,30.24,WNW,286,0.0,0.0,94,0.00,,,0.00,Wunderground v.1.15,2013-02-03 14:52:00,
2013-02-03 07:58:00,23.8,22.3,30.24,WNW,286,0.0,0.0,94,0.00,,,0.00,Wunderground v.1.15,2013-02-03 14:58:00,
2013-02-03 08:04:00,24.1,22.6,30.24,WNW,286,0.0,2.0,94,0.00,,,0.00,Wunderground v.1.15,2013-02-03 15:04:00,
2013-02-03 08:09:00,24.5,23.3,30.23,WNW,286,0.0,2.0,95,0.00,,,0.00,Wunderground v.1.15,2013-02-03 15:09:00,
2013-02-03 08:15:00,25.1,23.9,30.23,WNW,286,1.0,2.0,95,0.00,,,0.00,Wunderground v.1.15,2013-02-03 15:15:00,
2013-02-03 08:21:00,25.4,24.2,30.23,WNW,286,0.0,1.0,95,0.00,,,0.00,Wunderground v.1.15,2013-02-03 15:21:00,
2013-02-03 08:27:00,25.7,24.5,30.23,WNW,286,0.0,1.0,95,0.00,,,0.00,Wunderground v.1.15,2013-02-03 15:27:00,
2013-02-03 08:32:00,25.9,24.4,30.23,WNW,286,0.0,1.0,94,0.00,,,0.00,Wunderground v.1.15,2013-02-03 15:32:00,
2013-02-03 08:38:00,24.2,22.0,30.23,WNW,286,0.0,1.0,91,0.00,,,0.00,Wunderground v.1.15,2013-02-03 15:38:00,
2013-02-03 08:44:00,22.8,20.8,30.23,WNW,286,0.0,0.0,92,0.00,,,0.00,Wunderground v.1.15,2013-02-03 15:44:00,
2013-02-03 08:50:00,22.8,21.1,30.23,WNW,286,0.0,0.0,93,0.00,,,0.00,Wunderground v.1.15,2013-02-03 15:50:00,
2013-02-03 08:55:00,23.2,21.7,30.23,WNW,286,0.0,0.0,94,0.00,,,0.00,Wunderground v.1.15,2013-02-03 15:55:00,
2013-02-03 09:01:00,23.1,21.6,30.23,WNW,286,0.0,0.0,94,0.00,,,0.00,Wunderground v.1.15,2013-02-03 16:01:00,
2013-02-03 09:06:00,23.2,21.7,30.23,WNW,286,0.0,0.0,94,0.00,,,0.00,Wunderground v.1.15,2013-02-03 16:06:00,
2013-02-03 09:12:00,23.5,22.0,30.24,WNW,286,0.0,0.0,94,0.00,,,0.00,Wunderground v.1.15,2013-02-03 16:12:00,
2013-02-03 09:18:00,24.4,22.9,30.24,WNW,286,0.0,0.0,94,0.00,,,0.00,Wunderground v.1.15,2013-02-03 16:18:00,
2013-02-03 09:23:00,25.0,23.5,30.24,WNW,286,0.0,0.0,94,0.00,,,0.00,Wunderground v.1.15,2013-02-03 16:23:00,
2013-02-03 09:29:00,24.9,23.4,30.24,WNW,286,0.0,0.0,94,0.00,,,0.00,Wunderground v.1.15,2013-02-03 16:29:00,
2013-02-03 09:35:00,25.3,23.8,30.24,WNW,286,0.0,0.0,94,0.00,,,0.00,Wunderground v.1.15,2013-02-03 16:35:00,
2013-02-03 09:41:00,25.8,24.3,30.24,WNW,286,0.0,0.0,94,0.00,,,0.00,Wunderground v.1.15,2013-02-03 16:41:00,
2013-02-03 09:47:00,26.2,24.5,30.24,WNW,286,0.0,0.0,93,0.00,,,0.00,Wunderground v.1.15,2013-02-03 16:47:00,
2013-02-03 09:53:00,26.5,24.8,30.24,WNW,286,0.0,0.0,93,0.00,,,0.00,Wunderground v.1.15,2013-02-03 16:53:00,
2013-02-03 09:59:00,26.7,24.9,30.24,WNW,286,0.0,0.0,93,0.00,,,0.00,Wunderground v.1.15,2013-02-03 16:59:00,
2013-02-03 10:04:00,27.0,25.2,30.24,WNW,286,0.0,0.0,93,0.00,,,0.00,Wunderground v.1.15,2013-02-03 17:04:00,
2013-02-03 10:10:00,27.1,25.1,30.24,WNW,286,0.0,0.0,92,0.00,,,0.00,Wunderground v.1.15,2013-02-03 17:10:00,
2013-02-03 10:16:00,26.0,23.7,30.25,WNW,286,0.0,0.0,91,0.00,,,0.00,Wunderground v.1.15,2013-02-03 17:16:00,
2013-02-03 10:22:00,26.5,24.5,30.25,WNW,286,0.0,0.0,92,0.00,,,0.00,Wunderground v.1.15,2013-02-03 17:22:00,
2013-02-03 10:27:00,27.1,25.1,30.25,WNW,286,0.0,0.0,92,0.00,,,0.00,Wunderground v.1.15,2013-02-03 17:27:00,
2013-02-03 10:33:00,27.1,24.8,30.25,WNW,286,0.0,0.0,91,0.00,,,0.00,Wunderground v.1.15,2013-02-03 17:33:00,
2013-02-03 10:39:00,27.7,25.7,30.25,WNW,286,0.0,0.0,92,0.00,,,0.00,Wunderground v.1.15,2013-02-03 17:39:00,
2013-02-03 10:44:00,27.3,24.8,30.25,WNW,286,0.0,0.0,90,0.00,,,0.00,Wunderground v.1.15,2013-02-03 17:44:00,
2013-02-03 10:50:00,26.6,24.3,30.26,WNW,286,0.0,0.0,91,0.00,,,0.00,Wunderground v.1.15,2013-02-03 17:50:00,
2013-02-03 10:56:00,26.5,24.2,30.25,WNW,286,0.0,0.0,91,0.00,,,0.00,Wunderground v.1.15,2013-02-03 17:56:00,
2013-02-03 11:02:00,27.0,24.7,30.26,WNW,286,0.0,0.0,91,0.00,,,0.00,Wunderground v.1.15,2013-02-03 18:02:00,
2013-02-03 11:08:00,27.2,24.7,30.26,WNW,286,0.0,0.0,90,0.00,,,0.00,Wunderground v.1.15,2013-02-03 18:08:00,
2013-02-03 11:13:00,26.9,24.4,30.26,WNW,286,0.0,0.0,90,0.00,,,0.00,Wunderground v.1.15,2013-02-03 18:13:00,
2013-02-03 11:18:00,26.9,24.4,30.26,WNW,286,0.0,0.0,90,0.00,,,0.00,Wunderground v.1.15,2013-02-03 18:18:00,
2013-02-03 11:24:00,27.4,24.9,30.26,WNW,286,0.0,0.0,90,0.00,,,0.00,Wunderground v.1.15,2013-02-03 18:24:00,
2013-02-03 11:30:00,27.5,25.0,30.26,WNW,286,0.0,0.0,90,0.00,,,0.00,Wunderground v.1.15,2013-02-03 18:30:00,
2013-02-03 11:36:00,27.8,25.0,30.26,WNW,286,0.0,1.0,89,0.00,,,0.00,Wunderground v.1.15,2013-02-03 18:36:00,
2013-02-03 11:41:00,28.9,26.1,30.26,WNW,286,0.0,0.0,89,0.00,,,0.00,Wunderground v.1.15,2013-02-03 18:41:00,
2013-02-03 11:47:00,29.8,26.7,30.25,WNW,286,0.0,1.0,88,0.00,,,0.00,Wunderground v.1.15,2013-02-03 18:47:00,
2013-02-03 11:53:00,31.0,27.3,30.25,East,91,0.0,1.0,86,0.00,,,0.00,Wunderground v.1.15,2013-02-03 18:53:00,
2013-02-03 11:58:00,31.6,27.6,30.25,NE,52,0.0,1.0,85,0.00,,,0.00,Wunderground v.1.15,2013-02-03 18:58:00,
2013-02-03 12:04:00,31.1,27.4,30.24,NE,52,0.0,1.0,86,0.00,,,0.00,Wunderground v.1.15,2013-02-03 19:04:00,
2013-02-03 12:10:00,30.7,27.3,30.25,NE,52,0.0,1.0,87,0.00,,,0.00,Wunderground v.1.15,2013-02-03 19:10:00,
2013-02-03 12:15:00,30.8,27.7,30.24,NE,52,0.0,1.0,88,0.00,,,0.00,Wunderground v.1.15,2013-02-03 19:15:00,
2013-02-03 12:21:00,31.4,28.0,30.24,South,186,1.0,1.0,87,0.00,,,0.00,Wunderground v.1.15,2013-02-03 19:21:00,
2013-02-03 12:27:00,31.6,27.9,30.24,South,186,0.0,1.0,86,0.00,,,0.00,Wunderground v.1.15,2013-02-03 19:27:00,
2013-02-03 12:32:00,32.3,28.9,30.24,ESE,106,0.0,0.0,87,0.00,,,0.00,Wunderground v.1.15,2013-02-03 19:32:00,
2013-02-03 12:38:00,32.6,28.9,30.24,ESE,106,0.0,0.0,86,0.00,,,0.00,Wunderground v.1.15,2013-02-03 19:38:00,
2013-02-03 12:43:00,32.9,28.9,30.23,ESE,106,0.0,2.0,85,0.00,,,0.00,Wunderground v.1.15,2013-02-03 19:43:00,
2013-02-03 12:49:00,32.8,28.8,30.23,SSE,153,1.0,2.0,85,0.00,,,0.00,Wunderground v.1.15,2013-02-03 19:49:00,
2013-02-03 12:55:00,32.4,28.1,30.23,SSE,153,1.0,2.0,84,0.00,,,0.00,Wunderground v.1.15,2013-02-03 19:55:00,
2013-02-03 13:01:00,33.1,28.8,30.23,South,175,1.0,2.0,84,0.00,,,0.00,Wunderground v.1.15,2013-02-03 20:01:00,
2013-02-03 13:07:00,33.7,29.1,30.23,South,180,1.0,2.0,83,0.00,,,0.00,Wunderground v.1.15,2013-02-03 20:07:00,
2013-02-03 13:12:00,33.6,29.6,30.23,South,180,1.0,1.0,85,0.00,,,0.00,Wunderground v.1.15,2013-02-03 20:12:00,
2013-02-03 13:17:00,34.0,29.4,30.22,East,92,0.0,2.0,83,0.00,,,0.00,Wunderground v.1.15,2013-02-03 20:17:00,
2013-02-03 13:30:00,34.0,29.4,30.22,East,92,0.0,0.0,83,0.00,,,0.00,Wunderground v.1.15,2013-02-03 20:30:00,
2013-02-03 13:36:00,33.8,29.5,30.22,East,92,0.0,0.0,84,0.00,,,0.00,Wunderground v.1.15,2013-02-03 20:36:00,
2013-02-03 13:41:00,34.0,29.7,30.22,East,92,0.0,0.0,84,0.00,,,0.00,Wunderground v.1.15,2013-02-03 20:41:00,
2013-02-03 13:47:00,34.2,29.6,30.21,South,177,0.0,1.0,83,0.00,,,0.00,Wunderground v.1.15,2013-02-03 20:47:00,
2013-02-03 13:53:00,34.8,29.6,30.21,SSW,198,1.0,3.0,81,0.00,,,0.00,Wunderground v.1.15,2013-02-03 20:53:00,
2013-02-03 13:58:00,34.9,29.7,30.21,SSW,198,1.0,3.0,81,0.00,,,0.00,Wunderground v.1.15,2013-02-03 20:58:00,
2013-02-03 14:04:00,35.6,29.7,30.21,South,188,0.0,3.0,79,0.00,,,0.00,Wunderground v.1.15,2013-02-03 21:04:00,
2013-02-03 14:09:00,35.6,29.4,30.21,SSW,207,1.0,4.0,78,0.00,,,0.00,Wunderground v.1.15,2013-02-03 21:09:00,
2013-02-03 14:15:00,35.5,30.2,30.21,SSW,207,1.0,2.0,81,0.00,,,0.00,Wunderground v.1.15,2013-02-03 21:15:00,
2013-02-03 14:21:00,35.5,30.2,30.20,SSW,206,1.0,1.0,81,0.00,,,0.00,Wunderground v.1.15,2013-02-03 21:21:00,
2013-02-03 14:26:00,35.5,30.2,30.20,SSW,206,0.0,1.0,81,0.00,,,0.00,Wunderground v.1.15,2013-02-03 21:26:00,
2013-02-03 14:32:00,35.2,29.6,30.20,SSW,206,0.0,0.0,80,0.00,,,0.00,Wunderground v.1.15,2013-02-03 21:32:00,
2013-02-03 14:38:00,35.2,30.0,30.19,SSW,206,0.0,1.0,81,0.00,,,0.00,Wunderground v.1.15,2013-02-03 21:38:00,
2013-02-03 14:43:00,35.6,30.0,30.19,SSW,206,0.0,0.0,80,0.00,,,0.00,Wunderground v.1.15,2013-02-03 21:43:00,
2013-02-03 14:49:00,35.6,30.3,30.19,SSW,205,0.0,0.0,81,0.00,,,0.00,Wunderground v.1.15,2013-02-03 21:49:00,
2013-02-03 14:55:00,35.3,30.1,30.19,SSW,205,0.0,0.0,81,0.00,,,0.00,Wunderground v.1.15,2013-02-03 21:55:00,
2013-02-03 15:01:00,35.9,30.3,30.18,SSW,206,0.0,0.0,80,0.00,,,0.00,Wunderground v.1.15,2013-02-03 22:01:00,
2013-02-03 15:07:00,35.9,30.0,30.18,SSW,202,0.0,3.0,79,0.00,,,0.00,Wunderground v.1.15,2013-02-03 22:07:00,
2013-02-03 15:13:00,36.2,29.7,30.18,SSW,202,1.0,1.0,77,0.00,,,0.00,Wunderground v.1.15,2013-02-03 22:13:00,
2013-02-03 15:19:00,36.8,30.3,30.19,SSW,202,0.0,1.0,77,0.00,,,0.00,Wunderground v.1.15,2013-02-03 22:19:00,
2013-02-03 15:25:00,36.8,30.6,30.19,SSW,202,0.0,0.0,78,0.00,,,0.00,Wunderground v.1.15,2013-02-03 22:25:00,
2013-02-03 15:31:00,36.6,30.7,30.18,SSW,196,0.0,3.0,79,0.00,,,0.00,Wunderground v.1.15,2013-02-03 22:31:00,
2013-02-03 15:37:00,36.5,30.6,30.18,East,81,1.0,3.0,79,0.00,,,0.00,Wunderground v.1.15,2013-02-03 22:37:00,
2013-02-03 15:42:00,36.3,30.7,30.17,East,81,1.0,1.0,80,0.00,,,0.00,Wunderground v.1.15,2013-02-03 22:42:00,
2013-02-03 15:48:00,36.6,30.7,30.18,East,81,0.0,1.0,79,0.00,,,0.00,Wunderground v.1.15,2013-02-03 22:48:00,
2013-02-03 15:54:00,36.7,30.8,30.18,East,81,0.0,0.0,79,0.00,,,0.00,Wunderground v.1.15,2013-02-03 22:54:00,
2013-02-03 15:59:00,36.2,30.6,30.18,East,81,0.0,1.0,80,0.00,,,0.00,Wunderground v.1.15,2013-02-03 22:59:00,
2013-02-03 16:05:00,35.7,30.7,30.19,East,81,0.0,0.0,82,0.00,,,0.00,Wunderground v.1.15,2013-02-03 23:05:00,
2013-02-03 16:11:00,35.6,30.6,30.19,East,81,0.0,0.0,82,0.00,,,0.00,Wunderground v.1.15,2013-02-03 23:11:00,
2013-02-03 16:17:00,35.6,30.6,30.19,East,81,0.0,1.0,82,0.00,,,0.00,Wunderground v.1.15,2013-02-03 23:17:00,
2013-02-03 16:23:00,35.5,30.5,30.19,East,81,0.0,0.0,82,0.00,,,0.00,Wunderground v.1.15,2013-02-03 23:23:00,
2013-02-03 16:28:00,35.4,30.5,30.19,East,81,0.0,0.0,82,0.00,,,0.00,Wunderground v.1.15,2013-02-03 23:28:00,
2013-02-03 16:34:00,35.5,30.2,30.19,East,81,0.0,0.0,81,0.00,,,0.00,Wunderground v.1.15,2013-02-03 23:34:00,
2013-02-03 16:40:00,35.4,30.1,30.19,East,81,0.0,0.0,81,0.00,,,0.00,Wunderground v.1.15,2013-02-03 23:40:00,
2013-02-03 16:46:00,35.3,30.4,30.19,East,81,0.0,1.0,82,0.00,,,0.00,Wunderground v.1.15,2013-02-03 23:46:00,
2013-02-03 16:51:00,35.5,30.2,30.18,East,81,0.0,0.0,81,0.00,,,0.00,Wunderground v.1.15,2013-02-03 23:51:00,
2013-02-03 16:57:00,35.5,30.2,30.18,East,81,0.0,0.0,81,0.00,,,0.00,Wunderground v.1.15,2013-02-03 23:57:00,
2013-02-03 17:03:00,35.5,30.5,30.18,East,81,0.0,1.0,82,0.00,,,0.00,Wunderground v.1.15,2013-02-04 00:03:00,
2013-02-03 17:08:00,35.4,30.1,30.18,East,81,0.0,1.0,81,0.00,,,0.00,Wunderground v.1.15,2013-02-04 00:08:00,
2013-02-03 17:14:00,35.1,30.2,30.18,East,81,0.0,0.0,82,0.00,,,0.00,Wunderground v.1.15,2013-02-04 00:14:00,
2013-02-03 17:20:00,34.8,30.2,30.18,East,81,0.0,0.0,83,0.00,,,0.00,Wunderground v.1.15,2013-02-04 00:20:00,
2013-02-03 17:26:00,34.8,29.9,30.18,WNW,289,0.0,2.0,82,0.00,,,0.00,Wunderground v.1.15,2013-02-04 00:26:00,
2013-02-03 17:31:00,34.7,29.8,30.18,WNW,289,0.0,0.0,82,0.00,,,0.00,Wunderground v.1.15,2013-02-04 00:31:00,
2013-02-03 17:37:00,35.3,29.7,30.18,NNE,12,1.0,2.0,80,0.00,,,0.00,Wunderground v.1.15,2013-02-04 00:37:00,
2013-02-03 17:43:00,35.2,29.6,30.18,NNE,12,1.0,1.0,80,0.00,,,0.00,Wunderground v.1.15,2013-02-04 00:43:00,
2013-02-03 17:49:00,35.4,29.5,30.18,NNE,12,0.0,1.0,79,0.00,,,0.00,Wunderground v.1.15,2013-02-04 00:49:00,
2013-02-03 17:54:00,35.9,29.4,30.18,NNE,12,0.0,0.0,77,0.00,,,0.00,Wunderground v.1.15,2013-02-04 00:54:00,
2013-02-03 18:00:00,36.2,29.4,30.18,NNE,12,0.0,0.0,76,0.00,,,0.00,Wunderground v.1.15,2013-02-04 01:00:00,
2013-02-03 18:06:00,36.2,29.0,30.18,NNE,12,0.0,0.0,75,0.00,,,0.00,Wunderground v.1.15,2013-02-04 01:06:00,
2013-02-03 18:11:00,36.1,29.3,30.18,NNE,12,0.0,0.0,76,0.00,,,0.00,Wunderground v.1.15,2013-02-04 01:11:00,
2013-02-03 18:17:00,36.4,28.9,30.18,NNE,12,0.0,0.0,74,0.00,,,0.00,Wunderground v.1.15,2013-02-04 01:17:00,
2013-02-03 18:23:00,37.0,29.1,30.18,NNE,12,0.0,0.0,73,0.00,,,0.00,Wunderground v.1.15,2013-02-04 01:23:00,
2013-02-03 18:28:00,37.1,29.2,30.18,NNE,12,0.0,0.0,73,0.00,,,0.00,Wunderground v.1.15,2013-02-04 01:28:00,
2013-02-03 18:34:00,37.1,28.9,30.18,NNE,12,0.0,0.0,72,0.00,,,0.00,Wunderground v.1.15,2013-02-04 01:34:00,
2013-02-03 18:40:00,36.7,29.2,30.18,NNE,12,0.0,0.0,74,0.00,,,0.00,Wunderground v.1.15,2013-02-04 01:40:00,
2013-02-03 18:46:00,35.8,29.3,30.17,NNE,12,0.0,4.0,77,0.00,,,0.00,Wunderground v.1.15,2013-02-04 01:46:00,
2013-02-03 18:52:00,35.7,28.2,30.17,NNE,12,0.0,0.0,74,0.00,,,0.00,Wunderground v.1.15,2013-02-04 01:52:00,
2013-02-03 18:57:00,36.0,28.5,30.17,NNE,12,0.0,0.0,74,0.00,,,0.00,Wunderground v.1.15,2013-02-04 01:57:00,
2013-02-03 19:02:00,35.7,28.9,30.17,NNE,12,0.0,0.0,76,0.00,,,0.00,Wunderground v.1.15,2013-02-04 02:02:00,
2013-02-03 19:08:00,35.6,28.5,30.17,NNE,12,0.0,0.0,75,0.00,,,0.00,Wunderground v.1.15,2013-02-04 02:08:00,
2013-02-03 19:14:00,35.4,28.3,30.17,NNE,12,0.0,1.0,75,0.00,,,0.00,Wunderground v.1.15,2013-02-04 02:14:00,
2013-02-03 19:19:00,35.6,28.1,30.17,NNE,12,0.0,1.0,74,0.00,,,0.00,Wunderground v.1.15,2013-02-04 02:19:00,
2013-02-03 19:25:00,35.9,28.1,30.17,NNE,12,0.0,0.0,73,0.00,,,0.00,Wunderground v.1.15,2013-02-04 02:25:00,
2013-02-03 19:31:00,36.2,28.0,30.17,NNE,12,0.0,0.0,72,0.00,,,0.00,Wunderground v.1.15,2013-02-04 02:31:00,
2013-02-03 19:36:00,35.9,28.4,30.17,NNE,12,0.0,2.0,74,0.00,,,0.00,Wunderground v.1.15,2013-02-04 02:36:00,
2013-02-03 19:42:00,35.9,28.1,30.17,NNE,12,0.0,0.0,73,0.00,,,0.00,Wunderground v.1.15,2013-02-04 02:42:00,
2013-02-03 19:48:00,36.2,28.7,30.17,NNE,12,0.0,1.0,74,0.00,,,0.00,Wunderground v.1.15,2013-02-04 02:48:00,
2013-02-03 19:53:00,36.2,28.4,30.17,NNE,12,0.0,0.0,73,0.00,,,0.00,Wunderground v.1.15,2013-02-04 02:53:00,
2013-02-03 19:59:00,36.1,28.6,30.17,NNE,12,0.0,0.0,74,0.00,,,0.00,Wunderground v.1.15,2013-02-04 02:59:00,
2013-02-03 20:05:00,35.9,28.4,30.17,NNE,12,0.0,0.0,74,0.00,,,0.00,Wunderground v.1.15,2013-02-04 03:05:00,
2013-02-03 20:11:00,35.9,28.4,30.17,NNE,12,0.0,0.0,74,0.00,,,0.00,Wunderground v.1.15,2013-02-04 03:11:00,
2013-02-03 20:17:00,35.7,28.2,30.17,NNE,12,0.0,0.0,74,0.00,,,0.00,Wunderground v.1.15,2013-02-04 03:17:00,
2013-02-03 20:22:00,35.5,28.7,30.17,NNE,12,0.0,2.0,76,0.00,,,0.00,Wunderground v.1.15,2013-02-04 03:22:00,
2013-02-03 20:28:00,35.0,28.5,30.17,NNE,12,0.0,2.0,77,0.00,,,0.00,Wunderground v.1.15,2013-02-04 03:28:00,
2013-02-03 20:34:00,34.7,28.2,30.17,NNE,12,0.0,0.0,77,0.00,,,0.00,Wunderground v.1.15,2013-02-04 03:34:00,
2013-02-03 20:40:00,35.1,28.3,30.17,NNE,12,0.0,0.0,76,0.00,,,0.00,Wunderground v.1.15,2013-02-04 03:40:00,
2013-02-03 20:45:00,35.3,28.2,30.16,NNE,12,0.0,0.0,75,0.00,,,0.00,Wunderground v.1.15,2013-02-04 03:45:00,
2013-02-03 20:51:00,35.5,28.4,30.16,NNE,12,0.0,0.0,75,0.00,,,0.00,Wunderground v.1.15,2013-02-04 03:51:00,
2013-02-03 20:56:00,35.1,28.6,30.16,NNE,12,0.0,0.0,77,0.00,,,0.00,Wunderground v.1.15,2013-02-04 03:56:00,
2013-02-03 21:02:00,35.3,28.5,30.16,NNE,12,0.0,0.0,76,0.00,,,0.00,Wunderground v.1.15,2013-02-04 04:02:00,
2013-02-03 21:07:00,35.2,28.4,30.16,NNE,12,0.0,0.0,76,0.00,,,0.00,Wunderground v.1.15,2013-02-04 04:07:00,
2013-02-03 21:13:00,35.5,28.4,30.16,NNE,12,0.0,0.0,75,0.00,,,0.00,Wunderground v.1.15,2013-02-04 04:13:00,
2013-02-03 21:19:00,35.3,28.8,30.16,NNE,12,0.0,0.0,77,0.00,,,0.00,Wunderground v.1.15,2013-02-04 04:19:00,
2013-02-03 21:25:00,35.4,28.9,30.16,NNE,12,0.0,0.0,77,0.00,,,0.00,Wunderground v.1.15,2013-02-04 04:25:00,
2013-02-03 21:31:00,35.3,28.8,30.16,NNE,12,0.0,0.0,77,0.00,,,0.00,Wunderground v.1.15,2013-02-04 04:31:00,
2013-02-03 21:37:00,35.2,28.7,30.16,NNE,12,0.0,0.0,77,0.00,,,0.00,Wunderground v.1.15,2013-02-04 04:37:00,
2013-02-03 21:42:00,35.1,28.9,30.15,NNE,12,0.0,0.0,78,0.00,,,0.00,Wunderground v.1.15,2013-02-04 04:42:00,
2013-02-03 21:48:00,34.9,28.4,30.15,NNE,12,0.0,0.0,77,0.00,,,0.00,Wunderground v.1.15,2013-02-04 04:48:00,
2013-02-03 21:54:00,35.0,28.2,30.15,NNE,12,0.0,0.0,76,0.00,,,0.00,Wunderground v.1.15,2013-02-04 04:54:00,
2013-02-03 22:00:00,34.9,28.1,30.15,NNE,12,0.0,0.0,76,0.00,,,0.00,Wunderground v.1.15,2013-02-04 05:00:00,
2013-02-03 22:01:00,34.9,28.1,30.15,NNE,12,0.0,0.0,76,0.00,,,0.00,Wunderground v.1.15,2013-02-04 05:01:00,
2013-02-03 22:03:00,34.7,28.2,30.15,NNE,12,0.0,0.0,77,0.00,,,0.00,Wunderground v.1.15,2013-02-04 05:03:00,
2013-02-03 22:07:00,34.4,28.6,30.15,NNE,12,0.0,0.0,79,0.00,,,0.00,Wunderground v.1.15,2013-02-04 05:07:00,
2013-02-03 22:12:00,34.4,28.6,30.15,NNE,12,0.0,0.0,79,0.00,,,0.00,Wunderground v.1.15,2013-02-04 05:12:00,
2013-02-03 22:18:00,34.3,28.2,30.14,NNE,12,0.0,0.0,78,0.00,,,0.00,Wunderground v.1.15,2013-02-04 05:18:00,
2013-02-03 22:24:00,34.3,28.2,30.14,NNE,12,0.0,0.0,78,0.00,,,0.00,Wunderground v.1.15,2013-02-04 05:24:00,
2013-02-03 22:29:00,34.3,28.2,30.14,NNE,12,0.0,0.0,78,0.00,,,0.00,Wunderground v.1.15,2013-02-04 05:29:00,
2013-02-03 22:35:00,34.4,28.2,30.14,NNE,12,0.0,0.0,78,0.00,,,0.00,Wunderground v.1.15,2013-02-04 05:35:00,
2013-02-03 22:41:00,34.2,28.7,30.14,NNE,12,0.0,0.0,80,0.00,,,0.00,Wunderground v.1.15,2013-02-04 05:41:00,
2013-02-03 22:47:00,34.1,28.6,30.13,NNE,12,0.0,0.0,80,0.00,,,0.00,Wunderground v.1.15,2013-02-04 05:47:00,
2013-02-03 22:52:00,33.9,28.7,30.13,NNE,12,0.0,0.0,81,0.00,,,0.00,Wunderground v.1.15,2013-02-04 05:52:00,
2013-02-03 22:58:00,33.6,28.7,30.14,NNE,12,0.0,0.0,82,0.00,,,0.00,Wunderground v.1.15,2013-02-04 05:58:00,
2013-02-03 23:04:00,33.4,28.8,30.14,NNE,12,0.0,0.0,83,0.00,,,0.00,Wunderground v.1.15,2013-02-04 06:04:00,
2013-02-03 23:09:00,33.2,28.6,30.14,NNE,12,0.0,0.0,83,0.00,,,0.00,Wunderground v.1.15,2013-02-04 06:09:00,
2013-02-03 23:15:00,33.2,28.6,30.14,NNE,12,0.0,1.0,83,0.00,,,0.00,Wunderground v.1.15,2013-02-04 06:15:00,
2013-02-03 23:21:00,33.1,28.2,30.13,NNE,12,0.0,0.0,82,0.00,,,0.00,Wunderground v.1.15,2013-02-04 06:21:00,
2013-02-03 23:27:00,33.3,28.7,30.13,NNE,12,0.0,0.0,83,0.00,,,0.00,Wunderground v.1.15,2013-02-04 06:27:00,
2013-02-03 23:32:00,33.6,28.7,30.13,NNE,12,0.0,0.0,82,0.00,,,0.00,Wunderground v.1.15,2013-02-04 06:32:00,
2013-02-03 23:37:00,33.5,28.6,30.13,NNE,12,0.0,0.0,82,0.00,,,0.00,Wunderground v.1.15,2013-02-04 06:37:00,
2013-02-03 23:43:00,33.0,28.4,30.13,NNE,12,0.0,1.0,83,0.00,,,0.00,Wunderground v.1.15,2013-02-04 06:43:00,
2013-02-03 23:49:00,33.0,28.1,30.13,NNE,12,0.0,1.0,82,0.00,,,0.00,Wunderground v.1.15,2013-02-04 06:49:00,
2013-02-03 23:55:00,32.7,28.4,30.13,NNE,12,0.0,0.0,84,0.00,,,0.00,Wunderground v.1.15,2013-02-04 06:55:00,